sensor_id;sensor_type;location;lat;lon;timestamp;pressure;altitude;pressure_sealevel;temperature;humidity
71361;BME280;59166;48.908;1.870;2022-11-15T00:02:26;99780.13;;;9.99;100.00
71361;BME280;59166;48.908;1.870;2022-11-15T00:07:27;99791.97;;;9.93;100.00
71361;BME280;59166;48.908;1.870;2022-11-15T00:12:28;99784.69;;;9.83;100.00
71361;BME280;59166;48.908;1.870;2022-11-15T00:17:31;99777.69;;;9.82;100.00
71361;BME280;59166;48.908;1.870;2022-11-15T00:22:32;99769.31;;;9.79;100.00
71361;BME280;59166;48.908;1.870;2022-11-15T00:27:33;99766.03;;;9.67;100.00
71361;BME280;59166;48.908;1.870;2022-11-15T00:32:35;99752.03;;;9.65;100.00
71361;BME280;59166;48.908;1.870;2022-11-15T00:37:36;99747.69;;;9.64;100.00
71361;BME280;59166;48.908;1.870;2022-11-15T00:42:37;99752.53;;;9.52;100.00
71361;BME280;59166;48.908;1.870;2022-11-15T00:47:40;99737.41;;;9.46;100.00
71361;BME280;59166;48.908;1.870;2022-11-15T00:52:41;99730.13;;;9.36;100.00
71361;BME280;59166;48.908;1.870;2022-11-15T00:57:42;99734.97;;;9.39;100.00
71361;BME280;59166;48.908;1.870;2022-11-15T01:02:45;99729.88;;;9.38;100.00
71361;BME280;59166;48.908;1.870;2022-11-15T01:07:46;99733.06;;;9.29;100.00
71361;BME280;59166;48.908;1.870;2022-11-15T01:12:48;99714.47;;;9.28;100.00
71361;BME280;59166;48.908;1.870;2022-11-15T01:17:50;99709.88;;;9.23;100.00
71361;BME280;59166;48.908;1.870;2022-11-15T01:22:51;99694.78;;;9.22;100.00
71361;BME280;59166;48.908;1.870;2022-11-15T01:27:52;99699.06;;;9.18;100.00
71361;BME280;59166;48.908;1.870;2022-11-15T01:32:55;99693.16;;;9.16;100.00
71361;BME280;59166;48.908;1.870;2022-11-15T01:37:55;99678.59;;;9.07;100.00
71361;BME280;59166;48.908;1.870;2022-11-15T01:42:56;99671.56;;;9.01;100.00
71361;BME280;59166;48.908;1.870;2022-11-15T01:47:59;99670.44;;;8.92;100.00
71361;BME280;59166;48.908;1.870;2022-11-15T01:53:00;99654.81;;;8.89;100.00
71361;BME280;59166;48.908;1.870;2022-11-15T01:58:04;99639.97;;;8.87;100.00
71361;BME280;59166;48.908;1.870;2022-11-15T02:03:06;99637.25;;;8.81;100.00
71361;BME280;59166;48.908;1.870;2022-11-15T02:08:08;99626.19;;;8.73;100.00
71361;BME280;59166;48.908;1.870;2022-11-15T02:13:10;99618.09;;;8.68;100.00
71361;BME280;59166;48.908;1.870;2022-11-15T02:18:19;99601.66;;;8.59;100.00
71361;BME280;59166;48.908;1.870;2022-11-15T02:29:03;99598.91;;;8.44;100.00
71361;BME280;59166;48.908;1.870;2022-11-15T02:34:14;99587.34;;;8.44;100.00
71361;BME280;59166;48.908;1.870;2022-11-15T02:39:25;99576.00;;;8.37;100.00
71361;BME280;59166;48.908;1.870;2022-11-15T02:44:33;99561.44;;;8.27;100.00
71361;BME280;59166;48.908;1.870;2022-11-15T02:49:58;99563.59;;;8.30;100.00
71361;BME280;59166;48.908;1.870;2022-11-15T02:55:02;99552.56;;;8.32;100.00
71361;BME280;59166;48.908;1.870;2022-11-15T03:00:06;99538.84;;;8.28;100.00
71361;BME280;59166;48.908;1.870;2022-11-15T03:05:14;99534.00;;;8.30;100.00
71361;BME280;59166;48.908;1.870;2022-11-15T03:10:22;99527.25;;;8.28;100.00
71361;BME280;59166;48.908;1.870;2022-11-15T03:15:28;99519.97;;;8.18;100.00
71361;BME280;59166;48.908;1.870;2022-11-15T03:20:33;99524.81;;;8.16;100.00
71361;BME280;59166;48.908;1.870;2022-11-15T03:25:38;99518.63;;;8.16;100.00
71361;BME280;59166;48.908;1.870;2022-11-15T03:30:42;99514.31;;;8.15;100.00
71361;BME280;59166;48.908;1.870;2022-11-15T03:35:48;99508.94;;;8.15;100.00
71361;BME280;59166;48.908;1.870;2022-11-15T03:40:54;99506.47;;;8.08;100.00
71361;BME280;59166;48.908;1.870;2022-11-15T03:46:01;99500.28;;;8.08;100.00
71361;BME280;59166;48.908;1.870;2022-11-15T03:51:06;99501.09;;;8.08;100.00
71361;BME280;59166;48.908;1.870;2022-11-15T03:56:07;99496.22;;;8.00;100.00
71361;BME280;59166;48.908;1.870;2022-11-15T04:01:08;99487.38;;;8.00;100.00
71361;BME280;59166;48.908;1.870;2022-11-15T04:06:10;99480.38;;;7.99;100.00
71361;BME280;59166;48.908;1.870;2022-11-15T04:11:11;99472.00;;;8.00;100.00
71361;BME280;59166;48.908;1.870;2022-11-15T04:16:12;99487.91;;;7.97;100.00
71361;BME280;59166;48.908;1.870;2022-11-15T04:21:14;99484.09;;;7.93;100.00
71361;BME280;59166;48.908;1.870;2022-11-15T04:26:17;99472.53;;;7.92;100.00
71361;BME280;59166;48.908;1.870;2022-11-15T04:31:18;99460.97;;;7.92;100.00
71361;BME280;59166;48.908;1.870;2022-11-15T04:36:21;99457.19;;;7.88;100.00
71361;BME280;59166;48.908;1.870;2022-11-15T04:41:22;99447.78;;;7.85;100.00
71361;BME280;59166;48.908;1.870;2022-11-15T04:46:24;99432.19;;;7.92;100.00
71361;BME280;59166;48.908;1.870;2022-11-15T04:51:26;99425.19;;;7.91;100.00
71361;BME280;59166;48.908;1.870;2022-11-15T04:56:27;99429.50;;;7.92;100.00
71361;BME280;59166;48.908;1.870;2022-11-15T05:01:28;99417.41;;;7.90;100.00
71361;BME280;59166;48.908;1.870;2022-11-15T05:06:30;99421.97;;;7.89;100.00
71361;BME280;59166;48.908;1.870;2022-11-15T05:11:31;99431.91;;;7.89;100.00
71361;BME280;59166;48.908;1.870;2022-11-15T05:16:32;99430.28;;;7.88;100.00
71361;BME280;59166;48.908;1.870;2022-11-15T05:21:34;99424.66;;;7.94;100.00
71361;BME280;59166;48.908;1.870;2022-11-15T05:26:35;99426.28;;;7.95;100.00
71361;BME280;59166;48.908;1.870;2022-11-15T05:31:39;99409.63;;;7.98;100.00
71361;BME280;59166;48.908;1.870;2022-11-15T05:36:43;99388.91;;;7.99;100.00
71361;BME280;59166;48.908;1.870;2022-11-15T05:41:47;99380.03;;;7.98;100.00
71361;BME280;59166;48.908;1.870;2022-11-15T05:46:50;99365.25;;;8.01;100.00
71361;BME280;59166;48.908;1.870;2022-11-15T05:51:54;99363.38;;;8.01;100.00
71361;BME280;59166;48.908;1.870;2022-11-15T05:56:55;99359.34;;;8.04;100.00
71361;BME280;59166;48.908;1.870;2022-11-15T06:01:55;99351.56;;;8.12;100.00
71361;BME280;59166;48.908;1.870;2022-11-15T06:06:59;99341.34;;;8.24;100.00
71361;BME280;59166;48.908;1.870;2022-11-15T06:12:00;99326.28;;;8.34;100.00
71361;BME280;59166;48.908;1.870;2022-11-15T06:17:01;99334.34;;;8.49;100.00
71361;BME280;59166;48.908;1.870;2022-11-15T06:22:03;99309.03;;;8.55;100.00
71361;BME280;59166;48.908;1.870;2022-11-15T06:27:04;99304.72;;;8.64;100.00
71361;BME280;59166;48.908;1.870;2022-11-15T06:32:05;99289.09;;;8.71;100.00
71361;BME280;59166;48.908;1.870;2022-11-15T06:37:07;99275.34;;;8.72;100.00
71361;BME280;59166;48.908;1.870;2022-11-15T06:42:08;99270.22;;;8.76;100.00
71361;BME280;59166;48.908;1.870;2022-11-15T06:47:09;99272.41;;;8.74;100.00
71361;BME280;59166;48.908;1.870;2022-11-15T06:52:18;99288.56;;;8.74;100.00
71361;BME280;59166;48.908;1.870;2022-11-15T06:57:30;99287.19;;;8.71;100.00
71361;BME280;59166;48.908;1.870;2022-11-15T07:02:56;99282.88;;;8.75;100.00
71361;BME280;59166;48.908;1.870;2022-11-15T07:08:09;99282.06;;;8.80;100.00
71361;BME280;59166;48.908;1.870;2022-11-15T07:13:21;99271.00;;;8.81;100.00
71361;BME280;59166;48.908;1.870;2022-11-15T07:18:24;99277.22;;;8.87;100.00
71361;BME280;59166;48.908;1.870;2022-11-15T07:23:40;99262.13;;;9.01;100.00
71361;BME280;59166;48.908;1.870;2022-11-15T07:28:42;99251.31;;;9.11;100.00
71361;BME280;59166;48.908;1.870;2022-11-15T07:33:58;99242.06;;;9.22;100.00
71361;BME280;59166;48.908;1.870;2022-11-15T07:39:05;99240.97;;;9.28;100.00
71361;BME280;59166;48.908;1.870;2022-11-15T07:44:20;99233.09;;;9.37;100.00
71361;BME280;59166;48.908;1.870;2022-11-15T07:49:21;99236.50;;;9.53;100.00
71361;BME280;59166;48.908;1.870;2022-11-15T07:54:23;99230.03;;;9.54;100.00
71361;BME280;59166;48.908;1.870;2022-11-15T07:59:25;99229.22;;;9.58;100.00
71361;BME280;59166;48.908;1.870;2022-11-15T08:04:29;99240.47;;;9.65;100.00
71361;BME280;59166;48.908;1.870;2022-11-15T08:09:32;99240.97;;;9.72;100.00
71361;BME280;59166;48.908;1.870;2022-11-15T08:14:34;99231.22;;;9.76;100.00
71361;BME280;59166;48.908;1.870;2022-11-15T08:19:35;99223.91;;;9.82;100.00
71361;BME280;59166;48.908;1.870;2022-11-15T08:24:40;99207.69;;;9.87;100.00
71361;BME280;59166;48.908;1.870;2022-11-15T08:29:42;99206.84;;;9.92;100.00
71361;BME280;59166;48.908;1.870;2022-11-15T08:34:43;99205.44;;;9.99;100.00
71361;BME280;59166;48.908;1.870;2022-11-15T08:39:46;99218.28;;;10.07;100.00
71361;BME280;59166;48.908;1.870;2022-11-15T08:44:48;99207.47;;;10.12;100.00
71361;BME280;59166;48.908;1.870;2022-11-15T08:49:52;99210.09;;;10.17;100.00
71361;BME280;59166;48.908;1.870;2022-11-15T08:54:54;99206.31;;;10.18;100.00
71361;BME280;59166;48.908;1.870;2022-11-15T08:59:56;99199.53;;;10.21;100.00
71361;BME280;59166;48.908;1.870;2022-11-15T09:04:57;99201.41;;;10.25;100.00
71361;BME280;59166;48.908;1.870;2022-11-15T09:10:00;99206.25;;;10.23;100.00
71361;BME280;59166;48.908;1.870;2022-11-15T09:15:01;99210.59;;;10.24;100.00
71361;BME280;59166;48.908;1.870;2022-11-15T09:20:02;99201.41;;;10.25;100.00
71361;BME280;59166;48.908;1.870;2022-11-15T09:25:06;99197.38;;;10.23;100.00
71361;BME280;59166;48.908;1.870;2022-11-15T09:30:08;99196.50;;;10.27;100.00
71361;BME280;59166;48.908;1.870;2022-11-15T09:35:09;99170.09;;;10.24;100.00
71361;BME280;59166;48.908;1.870;2022-11-15T09:40:13;99176.06;;;10.21;100.00
71361;BME280;59166;48.908;1.870;2022-11-15T09:45:19;99162.00;;;10.24;100.00
71361;BME280;59166;48.908;1.870;2022-11-15T09:50:31;99144.66;;;10.30;100.00
71361;BME280;59166;48.908;1.870;2022-11-15T09:55:38;99137.31;;;10.36;100.00
71361;BME280;59166;48.908;1.870;2022-11-15T10:00:46;99134.56;;;10.41;100.00
71361;BME280;59166;48.908;1.870;2022-11-15T10:05:50;99111.03;;;10.47;100.00
71361;BME280;59166;48.908;1.870;2022-11-15T10:10:57;99103.41;;;10.49;100.00
71361;BME280;59166;48.908;1.870;2022-11-15T10:16:07;99102.84;;;10.52;100.00
71361;BME280;59166;48.908;1.870;2022-11-15T10:21:15;99092.03;;;10.52;100.00
71361;BME280;59166;48.908;1.870;2022-11-15T10:26:18;99086.88;;;10.55;100.00
71361;BME280;59166;48.908;1.870;2022-11-15T10:31:24;99082.78;;;10.58;100.00
71361;BME280;59166;48.908;1.870;2022-11-15T10:36:26;99068.69;;;10.61;100.00
71361;BME280;59166;48.908;1.870;2022-11-15T10:47:03;99057.84;;;10.66;100.00
71361;BME280;59166;48.908;1.870;2022-11-15T10:52:12;99050.75;;;10.70;100.00
71361;BME280;59166;48.908;1.870;2022-11-15T10:57:20;99040.19;;;10.73;100.00
71361;BME280;59166;48.908;1.870;2022-11-15T11:02:30;99027.44;;;10.79;100.00
71361;BME280;59166;48.908;1.870;2022-11-15T11:07:34;99017.66;;;10.83;100.00
71361;BME280;59166;48.908;1.870;2022-11-15T11:12:36;99019.16;;;10.89;100.00
71361;BME280;59166;48.908;1.870;2022-11-15T11:17:50;99023.75;;;10.89;100.00
71361;BME280;59166;48.908;1.870;2022-11-15T11:23:03;99020.56;;;10.87;100.00
71361;BME280;59166;48.908;1.870;2022-11-15T11:28:19;99011.34;;;10.88;100.00
71361;BME280;59166;48.908;1.870;2022-11-15T11:33:27;98990.25;;;10.90;100.00
71361;BME280;59166;48.908;1.870;2022-11-15T11:38:41;98976.66;;;10.95;100.00
71361;BME280;59166;48.908;1.870;2022-11-15T11:43:53;98966.66;;;10.95;100.00
71361;BME280;59166;48.908;1.870;2022-11-15T11:49:07;98950.06;;;11.02;100.00
71361;BME280;59166;48.908;1.870;2022-11-15T11:54:13;98946.75;;;11.05;100.00
71361;BME280;59166;48.908;1.870;2022-11-15T11:59:39;98939.19;;;11.07;100.00
71361;BME280;59166;48.908;1.870;2022-11-15T12:04:47;98932.28;;;11.14;100.00
71361;BME280;59166;48.908;1.870;2022-11-15T12:09:55;98919.78;;;11.18;100.00
71361;BME280;59166;48.908;1.870;2022-11-15T12:15:03;98907.78;;;11.24;100.00
71361;BME280;59166;48.908;1.870;2022-11-15T12:20:15;98914.19;;;11.28;100.00
71361;BME280;59166;48.908;1.870;2022-11-15T12:25:19;98894.66;;;11.31;100.00
71361;BME280;59166;48.908;1.870;2022-11-15T12:30:24;98898.56;;;11.39;100.00
71361;BME280;59166;48.908;1.870;2022-11-15T12:35:35;98892.88;;;11.41;100.00
71361;BME280;59166;48.908;1.870;2022-11-15T12:40:38;98890.56;;;11.48;100.00
71361;BME280;59166;48.908;1.870;2022-11-15T12:45:42;98867.53;;;11.50;100.00
71361;BME280;59166;48.908;1.870;2022-11-15T12:50:56;98858.41;;;11.60;100.00
71361;BME280;59166;48.908;1.870;2022-11-15T12:56:24;98858.59;;;11.63;100.00
71361;BME280;59166;48.908;1.870;2022-11-15T13:01:57;98862.00;;;11.69;100.00
71361;BME280;59166;48.908;1.870;2022-11-15T13:07:00;98845.53;;;11.79;100.00
71361;BME280;59166;48.908;1.870;2022-11-15T13:12:02;98838.44;;;11.83;100.00
71361;BME280;59166;48.908;1.870;2022-11-15T13:22:38;98827.59;;;11.83;100.00
71361;BME280;59166;48.908;1.870;2022-11-15T13:27:40;98816.56;;;11.93;100.00
71361;BME280;59166;48.908;1.870;2022-11-15T13:32:43;98794.72;;;11.89;100.00
71361;BME280;59166;48.908;1.870;2022-11-15T13:37:44;98787.03;;;11.83;100.00
71361;BME280;59166;48.908;1.870;2022-11-15T13:42:44;98794.28;;;11.74;100.00
71361;BME280;59166;48.908;1.870;2022-11-15T13:51:27;98767.22;;;11.74;100.00
71361;BME280;59166;48.908;1.870;2022-11-15T13:56:30;98746.75;;;11.81;100.00
71361;BME280;59166;48.908;1.870;2022-11-15T14:01:32;98726.69;;;11.82;100.00
71361;BME280;59166;48.908;1.870;2022-11-15T14:06:44;98730.41;;;11.86;100.00
71361;BME280;59166;48.908;1.870;2022-11-15T14:11:53;98734.91;;;11.91;100.00
71361;BME280;59166;48.908;1.870;2022-11-15T14:16:55;98718.84;;;11.95;100.00
71361;BME280;59166;48.908;1.870;2022-11-15T14:22:17;98719.31;;;11.97;100.00
71361;BME280;59166;48.908;1.870;2022-11-15T14:27:20;98719.13;;;11.93;100.00
71361;BME280;59166;48.908;1.870;2022-11-15T14:32:23;98718.53;;;11.96;100.00
71361;BME280;59166;48.908;1.870;2022-11-15T14:37:28;98722.22;;;12.00;100.00
71361;BME280;59166;48.908;1.870;2022-11-15T14:42:29;98729.09;;;12.06;100.00
71361;BME280;59166;48.908;1.870;2022-11-15T14:47:30;98716.75;;;12.14;100.00
71361;BME280;59166;48.908;1.870;2022-11-15T14:52:32;98717.41;;;12.19;100.00
71361;BME280;59166;48.908;1.870;2022-11-15T14:57:33;98716.63;;;12.41;100.00
71361;BME280;59166;48.908;1.870;2022-11-15T15:02:34;98701.66;;;12.44;100.00
71361;BME280;59166;48.908;1.870;2022-11-15T15:07:36;98696.56;;;12.42;100.00
71361;BME280;59166;48.908;1.870;2022-11-15T15:12:37;98678.41;;;12.43;100.00
71361;BME280;59166;48.908;1.870;2022-11-15T15:17:38;98695.59;;;12.47;100.00
71361;BME280;59166;48.908;1.870;2022-11-15T15:22:40;98684.75;;;12.47;100.00
71361;BME280;59166;48.908;1.870;2022-11-15T15:27:41;98671.84;;;12.44;100.00
71361;BME280;59166;48.908;1.870;2022-11-15T15:32:42;98680.97;;;12.48;100.00
71361;BME280;59166;48.908;1.870;2022-11-15T15:37:45;98668.66;;;12.42;100.00
71361;BME280;59166;48.908;1.870;2022-11-15T15:42:47;98676.78;;;12.42;100.00
71361;BME280;59166;48.908;1.870;2022-11-15T15:47:48;98665.97;;;12.42;100.00
71361;BME280;59166;48.908;1.870;2022-11-15T15:52:51;98670.28;;;12.43;100.00
71361;BME280;59166;48.908;1.870;2022-11-15T15:57:52;98659.91;;;12.45;100.00
71361;BME280;59166;48.908;1.870;2022-11-15T16:02:53;98665.63;;;12.43;100.00
71361;BME280;59166;48.908;1.870;2022-11-15T16:07:55;98645.41;;;12.41;100.00
71361;BME280;59166;48.908;1.870;2022-11-15T16:12:57;98646.69;;;12.43;100.00
71361;BME280;59166;48.908;1.870;2022-11-15T16:17:59;98628.53;;;12.44;100.00
71361;BME280;59166;48.908;1.870;2022-11-15T16:23:03;98634.91;;;12.48;100.00
71361;BME280;59166;48.908;1.870;2022-11-15T16:28:04;98636.81;;;12.47;100.00
71361;BME280;59166;48.908;1.870;2022-11-15T16:33:05;98631.56;;;12.51;100.00
71361;BME280;59166;48.908;1.870;2022-11-15T16:38:10;98618.53;;;12.53;100.00
71361;BME280;59166;48.908;1.870;2022-11-15T16:43:13;98617.22;;;12.50;100.00
71361;BME280;59166;48.908;1.870;2022-11-15T16:48:21;98625.69;;;12.49;100.00
71361;BME280;59166;48.908;1.870;2022-11-15T16:53:24;98617.69;;;12.44;100.00
71361;BME280;59166;48.908;1.870;2022-11-15T16:58:25;98624.72;;;12.45;100.00
71361;BME280;59166;48.908;1.870;2022-11-15T17:03:26;98619.28;;;12.45;100.00
71361;BME280;59166;48.908;1.870;2022-11-15T17:08:28;98613.41;;;12.43;100.00
71361;BME280;59166;48.908;1.870;2022-11-15T17:13:29;98615.63;;;12.41;100.00
71361;BME280;59166;48.908;1.870;2022-11-15T17:18:30;98619.28;;;12.45;100.00
71361;BME280;59166;48.908;1.870;2022-11-15T17:23:32;98614.19;;;12.43;100.00
71361;BME280;59166;48.908;1.870;2022-11-15T17:28:34;98615.97;;;12.48;100.00
71361;BME280;59166;48.908;1.870;2022-11-15T17:33:36;98603.22;;;12.48;100.00
71361;BME280;59166;48.908;1.870;2022-11-15T17:38:40;98599.41;;;12.49;100.00
71361;BME280;59166;48.908;1.870;2022-11-15T17:43:41;98605.59;;;12.50;100.00
71361;BME280;59166;48.908;1.870;2022-11-15T17:48:43;98626.50;;;12.49;100.00
71361;BME280;59166;48.908;1.870;2022-11-15T17:53:46;98631.09;;;12.49;100.00
71361;BME280;59166;48.908;1.870;2022-11-15T17:58:47;98626.00;;;12.47;100.00
71361;BME280;59166;48.908;1.870;2022-11-15T18:03:49;98636.19;;;12.50;100.00
71361;BME280;59166;48.908;1.870;2022-11-15T18:08:53;98631.94;;;12.58;100.00
71361;BME280;59166;48.908;1.870;2022-11-15T18:13:55;98625.25;;;12.64;100.00
71361;BME280;59166;48.908;1.870;2022-11-15T18:18:57;98623.34;;;12.64;100.00
71361;BME280;59166;48.908;1.870;2022-11-15T18:24:01;98638.16;;;12.67;100.00
71361;BME280;59166;48.908;1.870;2022-11-15T18:29:03;98643.44;;;12.72;100.00
71361;BME280;59166;48.908;1.870;2022-11-15T18:34:04;98627.66;;;12.65;100.00
71361;BME280;59166;48.908;1.870;2022-11-15T18:39:06;98630.03;;;12.58;100.00
71361;BME280;59166;48.908;1.870;2022-11-15T18:44:07;98618.22;;;12.54;100.00
71361;BME280;59166;48.908;1.870;2022-11-15T18:49:09;98621.84;;;12.50;100.00
71361;BME280;59166;48.908;1.870;2022-11-15T18:54:14;98638.25;;;12.45;100.00
71361;BME280;59166;48.908;1.870;2022-11-15T18:59:15;98662.75;;;12.39;100.00
71361;BME280;59166;48.908;1.870;2022-11-15T19:04:18;98671.03;;;12.34;100.00
71361;BME280;59166;48.908;1.870;2022-11-15T19:09:21;98673.72;;;12.34;100.00
71361;BME280;59166;48.908;1.870;2022-11-15T19:14:22;98654.72;;;12.26;100.00
71361;BME280;59166;48.908;1.870;2022-11-15T19:19:24;98652.78;;;12.26;100.00
71361;BME280;59166;48.908;1.870;2022-11-15T19:24:27;98680.19;;;12.25;100.00
71361;BME280;59166;48.908;1.870;2022-11-15T19:29:27;98692.13;;;12.24;100.00
71361;BME280;59166;48.908;1.870;2022-11-15T19:34:28;98681.94;;;12.29;100.00
71361;BME280;59166;48.908;1.870;2022-11-15T19:39:31;98685.78;;;12.28;100.00
71361;BME280;59166;48.908;1.870;2022-11-15T19:44:31;98670.44;;;12.15;100.00
71361;BME280;59166;48.908;1.870;2022-11-15T19:49:32;98657.25;;;12.22;100.00
71361;BME280;59166;48.908;1.870;2022-11-15T19:54:35;98647.34;;;12.18;100.00
71361;BME280;59166;48.908;1.870;2022-11-15T19:59:35;98670.72;;;12.14;100.00
71361;BME280;59166;48.908;1.870;2022-11-15T20:04:36;98666.66;;;12.03;100.00
71361;BME280;59166;48.908;1.870;2022-11-15T20:09:39;98673.13;;;11.93;100.00
71361;BME280;59166;48.908;1.870;2022-11-15T20:14:42;98682.63;;;11.82;100.00
71361;BME280;59166;48.908;1.870;2022-11-15T20:19:43;98684.84;;;11.80;100.00
71361;BME280;59166;48.908;1.870;2022-11-15T20:24:45;98692.94;;;11.58;100.00
71361;BME280;59166;48.908;1.870;2022-11-15T20:29:46;98696.78;;;11.43;100.00
71361;BME280;59166;48.908;1.870;2022-11-15T20:34:47;98694.13;;;11.29;100.00
71361;BME280;59166;48.908;1.870;2022-11-15T20:39:50;98686.44;;;11.23;100.00
71361;BME280;59166;48.908;1.870;2022-11-15T20:44:51;98690.34;;;11.17;100.00
71361;BME280;59166;48.908;1.870;2022-11-15T20:49:52;98690.84;;;11.05;100.00
71361;BME280;59166;48.908;1.870;2022-11-15T20:54:54;98694.97;;;11.03;100.00
71361;BME280;59166;48.908;1.870;2022-11-15T20:59:55;98703.47;;;10.96;100.00
71361;BME280;59166;48.908;1.870;2022-11-15T21:04:57;98704.78;;;10.85;100.00
71361;BME280;59166;48.908;1.870;2022-11-15T21:10:00;98721.31;;;10.83;100.00
71361;BME280;59166;48.908;1.870;2022-11-15T21:15:01;98734.50;;;10.85;100.00
71361;BME280;59166;48.908;1.870;2022-11-15T21:20:02;98730.50;;;10.82;100.00
71361;BME280;59166;48.908;1.870;2022-11-15T21:25:06;98747.00;;;10.81;100.00
71361;BME280;59166;48.908;1.870;2022-11-15T21:30:08;98753.19;;;10.81;100.00
71361;BME280;59166;48.908;1.870;2022-11-15T21:35:09;98745.78;;;10.73;100.00
71361;BME280;59166;48.908;1.870;2022-11-15T21:40:15;98761.25;;;10.68;100.00
71361;BME280;59166;48.908;1.870;2022-11-15T22:14:55;98732.63;;;10.07;100.00
71361;BME280;59166;48.908;1.870;2022-11-15T22:19:52;98751.91;;;10.01;100.00
71361;BME280;59166;48.908;1.870;2022-11-15T22:25:11;98762.09;;;10.04;100.00
71361;BME280;59166;48.908;1.870;2022-11-15T22:30:33;98745.22;;;9.79;100.00
71361;BME280;59166;48.908;1.870;2022-11-15T22:35:40;98757.84;;;9.84;100.00
71361;BME280;59166;48.908;1.870;2022-11-15T22:40:49;98753.41;;;9.74;100.00
71361;BME280;59166;48.908;1.870;2022-11-15T22:45:59;98774.81;;;9.84;100.00
71361;BME280;59166;48.908;1.870;2022-11-15T22:51:42;98753.25;;;9.66;100.00
71361;BME280;59166;48.908;1.870;2022-11-15T22:56:47;98758.34;;;9.67;100.00
71361;BME280;59166;48.908;1.870;2022-11-15T23:02:29;98778.53;;;9.70;100.00
71361;BME280;59166;48.908;1.870;2022-11-15T23:07:34;98789.91;;;9.67;100.00
71361;BME280;59166;48.908;1.870;2022-11-15T23:12:40;98781.72;;;9.53;100.00
71361;BME280;59166;48.908;1.870;2022-11-15T23:23:07;98751.28;;;9.34;100.00
71361;BME280;59166;48.908;1.870;2022-11-15T23:28:28;98742.97;;;9.30;100.00
71361;BME280;59166;48.908;1.870;2022-11-15T23:33:57;98739.31;;;9.21;100.00
71361;BME280;59166;48.908;1.870;2022-11-15T23:50:28;98757.38;;;9.21;100.00
71361;BME280;59166;48.908;1.870;2022-11-15T23:55:30;98771.56;;;9.26;100.00
